Stations météo

réclame
Mon MeteoGroup
Chatillon/Seine, France (7276): Température de l'air & dewpoint: 12.09.2019 11:00:00 - 18.09.2019 11:00:00 (CEST)Chatillon/Seine, France (7276): Vitesse du vent & gusts: 12.09.2019 11:00:00 - 18.09.2019 11:00:00 (CEST)Chatillon/Seine, France (7276): Direction du vent: 12.09.2019 11:00:00 - 18.09.2019 11:00:00 (CEST)Chatillon/Seine, France (7276): Ensoleillement: 12.09.2019 11:00:00 - 18.09.2019 11:00:00 (CEST)Chatillon/Seine, France (7276): Quantités de précipitations: 12.09.2019 11:00:00 - 18.09.2019 11:00:00 (CEST)
Date & Time tt [°C] td [°C] ff [km/h] ff [knt] fx [km/h] fx [knt] dd sd [min] rr [mm]
18.09.2019 11:00:00 - - - - - - - - -
18.09.2019 10:00:00 13,2 5,8 18 10 29 16 NE 54 0,0
18.09.2019 09:00:00 11,5 5,8 16 9 29 16 NE 60 0,0
18.09.2019 08:00:00 9,8 5,6 13 7 22 12 NE 18 -
18.09.2019 07:00:00 9,6 5,8 11 6 24 13 NE 0 0,0
18.09.2019 06:00:00 10,1 6,2 13 7 26 14 NE 0 0,0
18.09.2019 05:00:00 10,0 6,3 13 7 21 11 NNE 0 0,0
18.09.2019 04:00:00 10,7 6,3 9 5 16 9 NE 0 0,0
18.09.2019 03:00:00 11,4 6,3 8 4 21 11 NE 0 0,0
18.09.2019 02:00:00 12,7 6,7 15 8 28 15 NE 0 -
18.09.2019 01:00:00 12,0 7,1 11 6 21 11 NE 0 0,0
18.09.2019 00:00:00 11,9 7,0 5 3 13 7 ENE 0 0,0
17.09.2019 23:00:00 13,5 7,5 8 4 13 7 NNE 0 0,0
17.09.2019 22:00:00 14,7 7,7 4 2 18 10 N 0 0,0
17.09.2019 21:00:00 16,8 8,5 13 7 22 12 N 0 0,0
17.09.2019 20:00:00 18,3 9,4 15 8 29 16 N 24 -
17.09.2019 19:00:00 20,1 9,6 16 9 28 15 N 60 0,0
17.09.2019 18:00:00 21,3 9,8 21 11 29 16 N 24 0,0
17.09.2019 17:00:00 21,5 10,9 15 8 26 14 N 0 0,0
17.09.2019 16:00:00 21,8 11,2 13 7 24 13 N 0 0,0
17.09.2019 15:00:00 21,6 11,6 13 7 24 13 N 0 0,0
17.09.2019 14:00:00 21,7 12,5 13 7 24 13 N 6 -
17.09.2019 13:00:00 21,7 12,5 9 5 22 12 NNW 12 0,0
17.09.2019 12:00:00 20,9 13,3 11 6 24 13 NE 54 0,0
17.09.2019 11:00:00 19,0 12,0 11 6 16 9 NNE 60 0,0
17.09.2019 10:00:00 16,6 10,0 2 1 8 4 NNE 60 0,0
17.09.2019 09:00:00 11,3 8,3 0 0 8 4 N 60 0,0
17.09.2019 08:00:00 8,6 7,4 4 2 8 4 S 18 -
17.09.2019 07:00:00 8,1 6,7 0 0 8 4 N 0 0,0
17.09.2019 06:00:00 8,7 7,1 5 3 11 6 S 0 0,0
17.09.2019 05:00:00 8,2 5,8 4 2 5 3 S 0 0,0
17.09.2019 04:00:00 9,1 6,9 4 2 8 4 S 0 0,0
17.09.2019 03:00:00 9,2 6,3 2 1 9 5 SSE 0 0,0
17.09.2019 02:00:00 9,7 7,1 8 4 9 5 S 0 -
17.09.2019 01:00:00 10,7 6,8 4 2 9 5 S 0 0,0
17.09.2019 00:00:00 12,5 7,6 4 2 8 4 S 0 0,0
16.09.2019 23:00:00 14,2 7,5 4 2 4 2 SSE 0 0,0
16.09.2019 22:00:00 15,7 6,1 0 0 4 2 N 0 0,0
16.09.2019 21:00:00 19,6 7,7 2 1 9 5 N 0 0,0
16.09.2019 20:00:00 22,6 8,3 8 4 18 10 NNW 18 -
16.09.2019 19:00:00 25,2 7,8 11 6 21 11 NNW 60 0,0
16.09.2019 18:00:00 26,8 5,7 9 5 28 15 NNW 60 0,0
16.09.2019 17:00:00 27,5 4,5 11 6 21 11 NNW 60 0,0
16.09.2019 16:00:00 27,7 3,4 11 6 26 14 NNW 60 0,0
16.09.2019 15:00:00 27,5 5,1 13 7 24 13 N 60 0,0
16.09.2019 14:00:00 26,7 7,7 11 6 26 14 N 60 -
16.09.2019 13:00:00 25,9 9,7 8 4 18 10 NNW 60 0,0
16.09.2019 12:00:00 24,4 9,9 8 4 16 9 NNW 60 0,0
16.09.2019 11:00:00 21,7 12,3 4 2 8 4 NNW 60 0,0
16.09.2019 10:00:00 18,1 13,2 2 1 8 4 N 60 0,0
16.09.2019 09:00:00 14,0 12,2 4 2 5 3 N 60 0,0
16.09.2019 08:00:00 11,3 10,8 4 2 8 4 S 18 -
16.09.2019 07:00:00 10,7 9,9 5 3 9 5 SSE 0 0,0
16.09.2019 06:00:00 11,5 10,7 5 3 8 4 S 0 0,0
16.09.2019 05:00:00 12,3 11,2 2 1 8 4 N 0 0,0
16.09.2019 04:00:00 13,1 12,0 5 3 9 5 S 0 0,0
16.09.2019 03:00:00 13,1 11,3 5 3 9 5 SE 0 0,0
16.09.2019 02:00:00 14,0 12,0 4 2 8 4 SSE 0 -
16.09.2019 01:00:00 15,6 13,1 2 1 5 3 S 0 0,0
16.09.2019 00:00:00 16,5 12,6 2 1 5 3 SSE 0 0,0
15.09.2019 23:00:00 19,0 13,6 0 0 8 4 N 0 0,0
15.09.2019 22:00:00 20,2 13,4 2 1 8 4 NE 0 0,0
15.09.2019 21:00:00 23,2 13,7 5 3 13 7 N 0 0,0
15.09.2019 20:00:00 25,7 13,9 8 4 18 10 N 30 -
15.09.2019 19:00:00 28,4 13,1 8 4 15 8 NNW 60 0,0
15.09.2019 18:00:00 29,5 12,9 9 5 18 10 NW 60 0,0
15.09.2019 17:00:00 30,1 11,1 9 5 22 12 WNW 60 0,0
15.09.2019 16:00:00 30,1 13,0 5 3 22 12 W 54 0,0
15.09.2019 15:00:00 29,0 14,0 9 5 21 11 N 48 0,0
15.09.2019 14:00:00 30,3 13,6 8 4 24 13 S 60 -
15.09.2019 13:00:00 28,1 14,0 8 4 16 9 WSW 60 0,0
15.09.2019 12:00:00 26,4 15,4 4 2 9 5 N 60 0,0
15.09.2019 11:00:00 23,9 16,2 4 2 8 4 WNW 60 0,0
15.09.2019 10:00:00 19,8 15,4 2 1 5 3 NE 60 0,0
15.09.2019 09:00:00 14,8 13,8 0 0 4 2 N 60 0,2
15.09.2019 08:00:00 10,5 10,0 0 0 4 2 N 18 -
15.09.2019 07:00:00 10,2 9,6 2 1 8 4 SE 0 0,0
15.09.2019 06:00:00 11,4 10,9 0 0 5 3 N 0 0,0
15.09.2019 05:00:00 11,3 10,4 2 1 5 3 E 0 0,0
15.09.2019 04:00:00 12,2 11,3 2 1 9 5 SE 0 0,0
15.09.2019 03:00:00 12,7 11,8 4 2 9 5 ENE 0 0,0
15.09.2019 02:00:00 12,9 11,5 2 1 5 3 E 0 -
15.09.2019 01:00:00 13,7 11,7 2 1 5 3 ESE 0 0,0
15.09.2019 00:00:00 15,0 12,1 2 1 5 3 ESE 0 0,0
14.09.2019 23:00:00 16,7 12,6 0 0 8 4 N 0 0,0
14.09.2019 22:00:00 18,4 12,4 4 2 8 4 E 0 0,0
14.09.2019 21:00:00 21,3 13,0 4 2 8 4 N 0 0,0
14.09.2019 20:00:00 24,0 13,2 5 3 26 14 NE 36 -
14.09.2019 19:00:00 26,7 13,4 15 8 21 11 NNE 60 0,0
14.09.2019 18:00:00 27,6 13,2 9 5 22 12 N 60 0,0
14.09.2019 17:00:00 27,9 13,8 8 4 18 10 NNE 36 0,0
14.09.2019 16:00:00 27,9 14,2 11 6 22 12 N 36 0,0
14.09.2019 15:00:00 27,0 14,4 15 8 24 13 N 60 0,0
14.09.2019 14:00:00 26,5 14,9 8 4 22 12 NNE 60 -
14.09.2019 13:00:00 25,3 15,0 9 5 22 12 NE 60 0,0
14.09.2019 12:00:00 23,4 14,9 5 3 16 9 ENE 60 0,0
14.09.2019 11:00:00 20,3 14,4 9 5 16 9 NNE 60 0,0
14.09.2019 10:00:00 17,2 13,7 8 4 13 7 NE 60 0,0
14.09.2019 09:00:00 14,5 14,2 8 4 11 6 NE 60 0,0
14.09.2019 08:00:00 11,2 10,9 4 2 8 4 ENE 18 -
14.09.2019 07:00:00 10,5 10,0 2 1 8 4 ESE 0 0,0
14.09.2019 06:00:00 11,1 10,6 4 2 8 4 E 0 0,0
14.09.2019 05:00:00 11,4 10,8 2 1 5 3 NNE 0 0,0
14.09.2019 04:00:00 12,4 11,6 0 0 5 3 N 0 0,0
14.09.2019 03:00:00 13,0 12,1 4 2 11 6 E 0 0,0
14.09.2019 02:00:00 13,8 12,5 4 2 15 8 ENE 0 -
14.09.2019 01:00:00 14,3 13,0 5 3 9 5 NE 0 0,0
14.09.2019 00:00:00 14,8 13,0 5 3 11 6 NE 0 0,0
13.09.2019 23:00:00 16,3 13,6 9 5 16 9 NNE 0 0,0
13.09.2019 22:00:00 17,4 13,9 9 5 26 14 NNE 0 0,0
13.09.2019 21:00:00 19,2 14,0 18 10 29 16 NNE 0 0,0
13.09.2019 20:00:00 21,5 13,7 13 7 24 13 N 36 -
13.09.2019 19:00:00 23,7 13,0 15 8 24 13 NNE 60 0,0
13.09.2019 18:00:00 24,6 13,2 13 7 28 15 N 60 0,0
13.09.2019 17:00:00 24,3 14,1 11 6 28 15 N 60 0,0
13.09.2019 16:00:00 23,8 14,2 11 6 24 13 NNE 48 0,0
13.09.2019 15:00:00 22,6 14,4 13 7 26 14 NNE 0 0,0
13.09.2019 14:00:00 22,3 14,4 16 9 24 13 N 0 -
13.09.2019 13:00:00 22,4 15,0 13 7 24 13 NNE 0 0,0
13.09.2019 12:00:00 22,1 15,0 15 8 22 12 NNE 48 0,0
13.09.2019 11:00:00 20,5 14,6 9 5 16 9 NNE 48 0,0
13.09.2019 10:00:00 18,1 14,6 5 3 9 5 NNE 60 0,0
13.09.2019 09:00:00 14,4 13,6 4 2 8 4 N 60 0,0
13.09.2019 08:00:00 10,8 10,5 0 0 2 1 N 18 -
13.09.2019 07:00:00 10,7 10,2 0 0 4 2 N 0 0,0
13.09.2019 06:00:00 10,7 10,1 2 1 4 2 SSE 0 0,0
13.09.2019 05:00:00 11,3 10,7 0 0 4 2 N 0 0,0
13.09.2019 04:00:00 11,7 10,9 0 0 5 3 N 0 0,0
13.09.2019 03:00:00 12,5 11,7 0 0 4 2 N 0 0,0
13.09.2019 02:00:00 13,1 12,0 0 0 5 3 N 0 -
13.09.2019 01:00:00 14,0 12,4 2 1 4 2 SSE 0 0,0
13.09.2019 00:00:00 15,0 12,0 4 2 4 2 SE 0 0,0
12.09.2019 23:00:00 16,7 12,6 2 1 5 3 E 0 0,0
12.09.2019 22:00:00 17,9 12,6 2 1 8 4 ENE 0 0,0
12.09.2019 21:00:00 20,3 13,0 5 3 11 6 NE 0 0,0
12.09.2019 20:00:00 22,3 13,1 8 4 16 9 NNW 36 -
12.09.2019 19:00:00 24,2 13,1 9 5 22 12 NNW 60 0,0
12.09.2019 18:00:00 25,4 12,9 8 4 21 11 NNW 48 0,0
12.09.2019 17:00:00 25,8 12,3 8 4 21 11 NNW 60 0,0
12.09.2019 16:00:00 25,6 12,4 5 3 16 9 NNW 60 0,0
12.09.2019 15:00:00 24,9 12,8 8 4 18 10 N 48 0,0
12.09.2019 14:00:00 22,9 12,8 9 5 24 13 NW 42 -
12.09.2019 13:00:00 22,6 12,8 5 3 18 10 NNW 48 0,0
12.09.2019 12:00:00 21,5 13,4 8 4 16 9 N 60 0,0
12.09.2019 11:00:00 19,7 12,5 4 2 9 5 N 60 0,0

tt = Température de l'air
td = dewpoint
ff = Vitesse du vent
fx = gusts
dd = Direction du vent
sd = Ensoleillement
rr = Quantités de précipitations

stations d'obs. à proximité